Grand Haven, MI

12:28 AM EDT on August 31, 2014 (GMT -0400)
MesoWest | Change Station
CLOSE
Current Station
Personal Weather Station
Location: West Olive, MI
Elevation: 638 ft
Nearby Weather Stations

Elev 638 ft 42.97 °N, 86.08 °W | Updated 1 hour ago

Clear
Clear
°F
Feels Like °F
N
4.0
Wind Variable Wind from East

Today
High -- | Low -- °F
--% Chance of Precip.
Yesterday
High -- | Low -- °F
Precip. -- in
7:07 AM 8:20 PM
Waxing Crescent, 27% visible
Pressure 29.90 in
Visibility 10.0 miles
Clouds Clear
Dew Point Not available.
Humidity Not available.
Rainfall -999.00 in
Snow Depth Not available.
UV 0 out of 12
Pollen 5.30 out of 12
Ozone Good
PM2.5 Good
Flu Activity Not available.
METAR KBIV 310353Z AUTO 25006KT 10SM CLR 22/19 A2991 RMK AO2 SLP125 T02170194

More Conditions Fewer Conditions

Pressure 29.90 in
Visibility 10.0 miles
Clouds Clear
Dew Point Not available.
Humidity Not available.
Rainfall -999.00 in
Snow Depth Not available.
UV 0 out of 12
Pollen 5.30 out of 12
Ozone Good
PM2.5 Good
Flu Activity Not available.
METAR KBIV 310353Z AUTO 25006KT 10SM CLR 22/19 A2991 RMK AO2 SLP125 T02170194

More Conditions Fewer Conditions

10-Day Weather Forecast

Almanac

Astronomy

Aug. 31, 2014 Rise Set
Actual Time 7:07 AM EDT 8:20 PM EDT
Civil Twilight 6:38 AM EDT 8:49 PM EDT
Nautical Twilight 6:03 AM EDT 9:24 PM EDT
Astronomical Twilight 5:26 AM EDT 10:01 PM EDT
Moon 1:02 PM EDT 11:25 PM EDT
Length of Visible Light 14h 11m
Length of Day
13h 13m
Tomorrow will be 2m 48s shorter.
Waxing Crescent, 27% of the Moon is Illuminated
Today
Waxing Crescent
Sep 2
First Quarter
Sep 8
Full
Sep 15
Last Quarter
Sep 24
New

Yesterday's Extremes

State Highs State Lows

Community

WunderPhotos

Upload Photos

1,748,776 photos uploaded!

Nearby

Air Quality

  Air Quality AQ Index Pollutant
Yesterday Moderate
PM2.5
Yesterday Good
OZONE
Current Good
PM2.5
Current Good
OZONE
Saturday Moderate
PM2.5
Saturday Good
OZONE
Sunday Good
OZONE
Sunday Good
PM2.5
Monday Good
OZONE
Monday Good
PM2.5
Tuesday Good
OZONE
Tuesday Good
PM2.5

Snow Depth

Station Depth Elevation
No new snow has been reported.

Earthquake Activity

City Distance Mag. Time & Date
No recent earthquake activity has been reported nearby.
Minimum magnitude displayed is 2.5.

Coastal Water Temperatures

Place Temperature
Holland, MI 69.1 °F

Nearby Weather Stations